Kohrville, Texas
Current Conditions -  °F | °C
As of 4:17 AM on Thursday 29 Jan 2015 (Local Time) from KDWH Reporting Station
Haze Haze  
Wind Chill: 55°   Ceiling: 200
Heat Index: 55°   Visibility: 4mi
Dew Point: 55°   Wind: 0mph
Humidity: 100%   Direction: NA
Pressure: 30.16"   Gusts: NA
Location:  29.932°N, 95.7377°W
Report Text: KDWH 291017Z 00000KT 4SM BR OVC002 13/13 A3016 RMK AO2
Loading
Personal Weather Stations






























Interactive Weather Map New forecast layout! Learn more

10-Day Weather Forecast

Advertisements
Track Severe Weather on mobile